Airfield :
LOGIN :

Register | Disclaimer

   EN    FR    IT 

 










Legend :    VFR   Marginal VFR   IFR   Intensive IFR   Very Intensive IFR
Visi :
Ceiling :
>= 8 km
>= 3000ft
5 to 8 km
1000 to 3000 ft
1500m to 5 km
500 to 1000 ft
800 to 1500m
200 to 500 ft
< 800m
< 200 ft
Symbols :   Thunderstorms  Fog  Heavy snow  Heavy precipitations  Wind > 20 kt
SIGMETs :     Misc.  Thunderstorms  Icing  Turbulence  Mountain Waves  Volcanic Ashes






- Airport Elevation : 1989 ft
- IATA code : KLV


LKKV - Karlovy Vary

CURRENT METAR :
  • 131430Z VRB02KT 9999 BKN020 BKN030 02/01 Q1003

EXPIRED METARs :
  • 131400Z VRB02KT 9999 FEW007 BKN015 02/01 Q1003
  • 131354Z VRB02KT 9999 FEW007 BKN015 02/02 Q1002 RMK REG QNH 0998
  • 131330Z VRB02KT 8000 SCT003 BKN009 02/01 Q1002
  • 131300Z VRB01KT 8000 FEW002 BKN006 02/01 Q1002
  • 131230Z VRB01KT 5000 -RA BR SCT002 BKN006 01/01 Q1002
  • 131200Z 13002KT 5000 -RA BR BKN003 OVC008 01/01 Q1002
  • 131130Z 00000KT 3000 -SNRA BR BKN002 OVC007 01/01 Q1002

TAF TAF LKKV
Valid from the 13 at 12:00 until the 14 at 18:00 UTC


131100Z 1312/1418 VRB02KT 7000 SCT004 BKN016
TEMPO 1312/1316 27006KT 4000 RASN BR BKN004
PROB30
TEMPO 1312/1316 1400 SN BR BKN002
BECMG 1316/1318 10008KT 9999 SCT020
TEMPO 1318/1410 BKN010
PROB30
TEMPO 1318/1409 4000 BR BKN004



MET'MAP, your aeronautical weather chart ! - Copyright ORBIFLY December 2007 - Disclaimer

ORBIFLY MET'MAP TEAM :

Programming & Development : Alexandra Zaïnal
Concept & Development : Baudouin d'Aumeries
Co-Development & Prog : Marc-Olivier Méhu
Technical & hardware support : Manuel Goepfert

Contact : metmap@orbifly.com




SOURCES & CREDITS :

   NOAA